createdAt,value
2018-03-24T00:14:57.818Z,5.6
2018-03-24T00:31:33.033Z,5.3
2018-03-24T00:48:08.547Z,5.0
2018-03-24T01:04:43.915Z,4.6
2018-03-24T01:21:19.030Z,4.3
2018-03-24T01:37:53.799Z,4.0
2018-03-24T01:54:28.435Z,4.0
2018-03-24T02:11:03.753Z,3.7
2018-03-24T02:27:37.731Z,3.7
2018-03-24T02:44:13.002Z,3.7
2018-03-24T03:00:47.568Z,3.4
2018-03-24T03:17:21.808Z,3.4
2018-03-24T03:33:56.070Z,3.0
2018-03-24T03:50:30.219Z,3.0
2018-03-24T04:07:04.459Z,2.7
2018-03-24T04:23:38.510Z,2.7
2018-03-24T04:40:12.439Z,2.7
2018-03-24T04:56:45.768Z,2.7
2018-03-24T05:13:19.721Z,2.4
2018-03-24T05:29:53.531Z,2.4
2018-03-24T05:46:27.367Z,2.7
2018-03-24T06:03:01.345Z,2.7
2018-03-24T06:19:35.434Z,3.0
2018-03-24T06:36:09.711Z,3.4
2018-03-24T06:52:44.453Z,4.0
2018-03-24T07:09:19.343Z,4.3
2018-03-24T07:25:54.789Z,4.6
2018-03-24T07:39:11.516Z,5.3
2018-03-24T07:55:47.707Z,5.6
2018-03-24T08:05:45.510Z,6.2
2018-03-24T08:15:43.613Z,6.9
2018-03-24T08:25:41.807Z,7.2
2018-03-24T08:42:19.082Z,7.5
2018-03-24T08:58:56.794Z,8.2
2018-03-24T09:15:34.780Z,8.5
2018-03-24T09:25:34.114Z,9.1
2018-03-24T09:42:12.553Z,9.8
2018-03-24T09:55:31.874Z,9.8
2018-03-24T10:12:11.136Z,10.1
2018-03-24T10:28:51.384Z,10.7
2018-03-24T10:45:30.965Z,11.0
2018-03-24T11:02:10.771Z,11.4
2018-03-24T11:05:30.873Z,11.7
2018-03-24T11:18:51.313Z,12.0
2018-03-24T11:25:31.698Z,12.0
2018-03-24T11:35:32.381Z,12.6
2018-03-24T11:52:13.757Z,12.6
2018-03-24T12:08:55.099Z,12.6
2018-03-24T12:22:15.995Z,12.0
2018-03-24T12:38:56.924Z,12.3
2018-03-24T12:55:38.072Z,12.3
2018-03-24T13:08:58.578Z,11.7
2018-03-24T13:22:19.323Z,12.3
2018-03-24T13:39:00.424Z,12.6
2018-03-24T13:55:41.540Z,12.0
2018-03-24T14:12:22.600Z,12.3
2018-03-24T14:29:03.862Z,12.3
2018-03-24T14:45:44.975Z,12.0
2018-03-24T15:02:25.385Z,11.7
2018-03-24T15:19:05.854Z,11.4
2018-03-24T15:35:46.185Z,11.4
2018-03-24T15:52:26.332Z,11.0
2018-03-24T16:09:06.328Z,11.0
2018-03-24T16:25:46.292Z,10.7
2018-03-24T16:42:25.799Z,10.7
2018-03-24T16:59:05.531Z,10.4
2018-03-24T17:15:45.157Z,10.4
2018-03-24T17:32:24.310Z,10.1
2018-03-24T17:49:03.454Z,9.8
2018-03-24T18:05:42.481Z,9.4
2018-03-24T18:22:21.278Z,9.1
2018-03-24T18:38:59.781Z,8.8
2018-03-24T18:55:38.123Z,8.8
2018-03-24T19:12:16.398Z,8.5
2018-03-24T19:28:54.573Z,8.5
2018-03-24T19:45:32.562Z,8.2
2018-03-24T20:02:10.414Z,7.8
2018-03-24T20:18:48.142Z,7.5
2018-03-24T20:35:25.577Z,7.5
2018-03-24T20:52:02.879Z,7.2
2018-03-24T21:08:40.015Z,6.9
2018-03-24T21:25:16.983Z,6.6
2018-03-24T21:41:53.798Z,6.6
2018-03-24T21:58:30.379Z,6.2
2018-03-24T22:15:06.613Z,6.2
2018-03-24T22:31:43.135Z,5.9
2018-03-24T22:48:18.596Z,5.9
2018-03-24T23:04:54.324Z,5.6
2018-03-24T23:21:29.978Z,5.3
2018-03-24T23:38:05.490Z,5.3
2018-03-24T23:54:40.908Z,5.0
